sensor_id;sensor_type;location;lat;lon;timestamp;pressure;altitude;pressure_sealevel;temperature;humidity
61769;BME280;47669;48.712;9.016;2024-01-30T00:00:31;97911.31;;;0.33;88.82
61769;BME280;47669;48.712;9.016;2024-01-30T00:02:57;97911.44;;;0.07;90.39
61769;BME280;47669;48.712;9.016;2024-01-30T00:05:22;97907.41;;;0.03;89.95
61769;BME280;47669;48.712;9.016;2024-01-30T00:07:47;97914.25;;;0.04;90.64
61769;BME280;47669;48.712;9.016;2024-01-30T00:10:12;97900.75;;;0.23;89.97
61769;BME280;47669;48.712;9.016;2024-01-30T00:12:38;97906.47;;;0.04;90.23
61769;BME280;47669;48.712;9.016;2024-01-30T00:15:03;97911.22;;;0.10;90.55
61769;BME280;47669;48.712;9.016;2024-01-30T00:17:30;97902.03;;;-0.07;90.79
61769;BME280;47669;48.712;9.016;2024-01-30T00:19:55;97907.84;;;0.21;89.72
61769;BME280;47669;48.712;9.016;2024-01-30T00:22:20;97911.22;;;0.10;90.89
61769;BME280;47669;48.712;9.016;2024-01-30T00:24:45;97908.31;;;0.15;90.67
61769;BME280;47669;48.712;9.016;2024-01-30T00:27:11;97908.97;;;0.30;90.02
61769;BME280;47669;48.712;9.016;2024-01-30T00:29:36;97908.69;;;0.22;90.37
61769;BME280;47669;48.712;9.016;2024-01-30T00:32:01;97914.88;;;0.32;91.07
61769;BME280;47669;48.712;9.016;2024-01-30T00:34:27;97907.63;;;0.24;90.55
61769;BME280;47669;48.712;9.016;2024-01-30T00:36:52;97903.34;;;0.23;89.76
61769;BME280;47669;48.712;9.016;2024-01-30T00:39:17;97902.66;;;-0.03;90.76
61769;BME280;47669;48.712;9.016;2024-01-30T00:41:44;97901.09;;;0.18;90.34
61769;BME280;47669;48.712;9.016;2024-01-30T00:44:10;97905.84;;;0.25;90.65
61769;BME280;47669;48.712;9.016;2024-01-30T00:46:35;97912.06;;;0.11;91.34
61769;BME280;47669;48.712;9.016;2024-01-30T00:49:00;97908.63;;;0.10;91.04
61769;BME280;47669;48.712;9.016;2024-01-30T00:51:26;97906.66;;;0.25;90.99
61769;BME280;47669;48.712;9.016;2024-01-30T00:53:51;97901.66;;;0.11;90.84
61769;BME280;47669;48.712;9.016;2024-01-30T00:56:16;97914.31;;;0.15;91.33
61769;BME280;47669;48.712;9.016;2024-01-30T00:58:43;97905.44;;;0.07;90.70
61769;BME280;47669;48.712;9.016;2024-01-30T01:01:08;97909.34;;;-0.12;91.75
61769;BME280;47669;48.712;9.016;2024-01-30T01:03:34;97905.28;;;0.08;91.17
61769;BME280;47669;48.712;9.016;2024-01-30T01:05:59;97909.81;;;0.42;90.26
61769;BME280;47669;48.712;9.016;2024-01-30T01:08:25;97912.09;;;0.22;90.22
61769;BME280;47669;48.712;9.016;2024-01-30T01:10:50;97908.22;;;0.04;91.53
61769;BME280;47669;48.712;9.016;2024-01-30T01:13:15;97910.72;;;0.05;90.76
61769;BME280;47669;48.712;9.016;2024-01-30T01:15:40;97912.56;;;-0.08;91.45
61769;BME280;47669;48.712;9.016;2024-01-30T01:18:06;97911.38;;;-0.28;92.42
61769;BME280;47669;48.712;9.016;2024-01-30T01:20:31;97910.88;;;-0.09;92.14
61769;BME280;47669;48.712;9.016;2024-01-30T01:22:57;97908.97;;;-0.18;92.04
61769;BME280;47669;48.712;9.016;2024-01-30T01:25:22;97910.78;;;-0.08;92.11
61769;BME280;47669;48.712;9.016;2024-01-30T01:27:47;97915.59;;;-0.14;91.74
61769;BME280;47669;48.712;9.016;2024-01-30T01:30:17;97909.53;;;-0.39;92.76
61769;BME280;47669;48.712;9.016;2024-01-30T01:32:50;97910.72;;;0.05;91.70
61769;BME280;47669;48.712;9.016;2024-01-30T01:35:21;97914.28;;;-0.33;92.56
61769;BME280;47669;48.712;9.016;2024-01-30T01:37:46;97910.59;;;-0.42;93.47
61769;BME280;47669;48.712;9.016;2024-01-30T01:40:12;97904.69;;;-0.19;92.96
61769;BME280;47669;48.712;9.016;2024-01-30T01:42:37;97913.34;;;-0.32;92.78
61769;BME280;47669;48.712;9.016;2024-01-30T01:45:03;97915.09;;;0.05;91.94
61769;BME280;47669;48.712;9.016;2024-01-30T01:47:29;97918.25;;;-0.03;91.15
61769;BME280;47669;48.712;9.016;2024-01-30T01:49:54;97916.41;;;-0.38;92.49
61769;BME280;47669;48.712;9.016;2024-01-30T01:52:19;97909.34;;;-0.36;92.53
61769;BME280;47669;48.712;9.016;2024-01-30T01:54:45;97914.34;;;-0.22;92.67
61769;BME280;47669;48.712;9.016;2024-01-30T01:57:10;97900.41;;;-0.08;92.25
61769;BME280;47669;48.712;9.016;2024-01-30T01:59:36;97897.13;;;-0.23;92.49
61769;BME280;47669;48.712;9.016;2024-01-30T02:02:02;97901.97;;;-0.18;91.46
61769;BME280;47669;48.712;9.016;2024-01-30T02:04:28;97901.41;;;-0.34;91.65
61769;BME280;47669;48.712;9.016;2024-01-30T02:06:53;97903.97;;;-0.22;92.23
61769;BME280;47669;48.712;9.016;2024-01-30T02:09:19;97905.81;;;-0.48;92.13
61769;BME280;47669;48.712;9.016;2024-01-30T02:11:44;97908.41;;;-0.48;92.93
61769;BME280;47669;48.712;9.016;2024-01-30T02:14:10;97902.41;;;-0.48;93.51
61769;BME280;47669;48.712;9.016;2024-01-30T02:16:35;97904.34;;;-0.39;92.39
61769;BME280;47669;48.712;9.016;2024-01-30T02:19:01;97911.00;;;-0.48;92.36
61769;BME280;47669;48.712;9.016;2024-01-30T02:21:27;97912.22;;;-0.41;92.97
61769;BME280;47669;48.712;9.016;2024-01-30T02:23:54;97913.88;;;-0.27;92.07
61769;BME280;47669;48.712;9.016;2024-01-30T02:26:20;97910.72;;;0.05;91.29
61769;BME280;47669;48.712;9.016;2024-01-30T02:28:45;97912.88;;;-0.13;91.11
61769;BME280;47669;48.712;9.016;2024-01-30T02:31:10;97913.72;;;-0.12;91.27
61769;BME280;47669;48.712;9.016;2024-01-30T02:33:36;97919.44;;;-0.44;92.03
61769;BME280;47669;48.712;9.016;2024-01-30T02:36:01;97924.31;;;-0.52;93.55
61769;BME280;47669;48.712;9.016;2024-01-30T02:38:27;97919.97;;;-0.52;93.57
61769;BME280;47669;48.712;9.016;2024-01-30T02:40:52;97919.69;;;-0.23;92.73
61769;BME280;47669;48.712;9.016;2024-01-30T02:43:18;97907.13;;;-0.29;92.21
61769;BME280;47669;48.712;9.016;2024-01-30T02:45:43;97913.25;;;-0.30;91.32
61769;BME280;47669;48.712;9.016;2024-01-30T02:48:08;97917.03;;;-0.47;92.11
61769;BME280;47669;48.712;9.016;2024-01-30T02:50:34;97911.31;;;-0.39;92.22
61769;BME280;47669;48.712;9.016;2024-01-30T02:52:59;97906.50;;;-0.70;93.12
61769;BME280;47669;48.712;9.016;2024-01-30T02:55:24;97916.25;;;-0.73;93.65
61769;BME280;47669;48.712;9.016;2024-01-30T02:57:50;97904.81;;;-0.71;93.88
61769;BME280;47669;48.712;9.016;2024-01-30T03:00:15;97906.25;;;-0.54;93.26
61769;BME280;47669;48.712;9.016;2024-01-30T03:02:40;97906.19;;;-0.65;92.72
61769;BME280;47669;48.712;9.016;2024-01-30T03:05:06;97911.00;;;-0.85;93.52
61769;BME280;47669;48.712;9.016;2024-01-30T03:07:33;97912.84;;;-0.74;93.74
61769;BME280;47669;48.712;9.016;2024-01-30T03:09:58;97906.28;;;-0.67;93.61
61769;BME280;47669;48.712;9.016;2024-01-30T03:12:23;97904.72;;;-0.69;93.89
61769;BME280;47669;48.712;9.016;2024-01-30T03:14:49;97906.22;;;-1.04;94.43
61769;BME280;47669;48.712;9.016;2024-01-30T03:17:14;97913.34;;;-0.82;94.61
61769;BME280;47669;48.712;9.016;2024-01-30T03:19:40;97905.44;;;-0.67;93.77
61769;BME280;47669;48.712;9.016;2024-01-30T03:22:05;97907.38;;;-0.45;92.57
61769;BME280;47669;48.712;9.016;2024-01-30T03:24:31;97912.72;;;-0.85;93.92
61769;BME280;47669;48.712;9.016;2024-01-30T03:26:56;97910.66;;;-0.67;92.83
61769;BME280;47669;48.712;9.016;2024-01-30T03:29:21;97914.06;;;-0.67;91.70
61769;BME280;47669;48.712;9.016;2024-01-30T03:31:47;97908.81;;;-0.91;93.24
61769;BME280;47669;48.712;9.016;2024-01-30T03:34:12;97912.13;;;-0.76;93.23
61769;BME280;47669;48.712;9.016;2024-01-30T03:36:37;97909.81;;;-0.93;93.52
61769;BME280;47669;48.712;9.016;2024-01-30T03:39:02;97909.63;;;-1.03;94.05
61769;BME280;47669;48.712;9.016;2024-01-30T03:41:28;97915.00;;;-0.80;93.36
61769;BME280;47669;48.712;9.016;2024-01-30T03:43:53;97908.06;;;-0.67;92.83
61769;BME280;47669;48.712;9.016;2024-01-30T03:46:18;97907.16;;;-0.42;92.06
61769;BME280;47669;48.712;9.016;2024-01-30T03:48:45;97909.53;;;-0.89;92.38
61769;BME280;47669;48.712;9.016;2024-01-30T03:51:10;97908.38;;;-0.97;93.43
61769;BME280;47669;48.712;9.016;2024-01-30T03:53:40;97909.53;;;-0.89;94.30
61769;BME280;47669;48.712;9.016;2024-01-30T03:56:06;97908.19;;;-0.94;94.30
61769;BME280;47669;48.712;9.016;2024-01-30T03:58:31;97910.25;;;-0.74;93.38
61769;BME280;47669;48.712;9.016;2024-01-30T04:00:56;97912.84;;;-0.74;93.39
61769;BME280;47669;48.712;9.016;2024-01-30T04:03:21;97909.81;;;-0.93;93.52
61769;BME280;47669;48.712;9.016;2024-01-30T04:05:47;97901.31;;;-0.95;93.69
61769;BME280;47669;48.712;9.016;2024-01-30T04:08:12;97907.88;;;-1.03;94.13
61769;BME280;47669;48.712;9.016;2024-01-30T04:10:37;97915.44;;;-1.12;94.53
61769;BME280;47669;48.712;9.016;2024-01-30T04:13:03;97915.16;;;-0.95;93.44
61769;BME280;47669;48.712;9.016;2024-01-30T04:15:28;97908.16;;;-0.82;93.18
61769;BME280;47669;48.712;9.016;2024-01-30T04:17:57;97906.81;;;-0.87;92.66
61769;BME280;47669;48.712;9.016;2024-01-30T04:20:22;97901.22;;;-0.94;93.59
61769;BME280;47669;48.712;9.016;2024-01-30T04:22:48;97901.88;;;-1.16;93.67
61769;BME280;47669;48.712;9.016;2024-01-30T04:25:13;97903.91;;;-1.08;93.98
61769;BME280;47669;48.712;9.016;2024-01-30T04:27:39;97897.69;;;-0.93;93.76
61769;BME280;47669;48.712;9.016;2024-01-30T04:30:05;97898.00;;;-0.85;93.79
61769;BME280;47669;48.712;9.016;2024-01-30T04:32:31;97905.19;;;-1.01;92.72
61769;BME280;47669;48.712;9.016;2024-01-30T04:34:57;97903.81;;;-0.94;93.24
61769;BME280;47669;48.712;9.016;2024-01-30T04:37:22;97899.16;;;-0.89;93.44
61769;BME280;47669;48.712;9.016;2024-01-30T04:39:48;97899.16;;;-1.01;93.13
61769;BME280;47669;48.712;9.016;2024-01-30T04:42:13;97900.91;;;-1.15;93.54
61769;BME280;47669;48.712;9.016;2024-01-30T04:44:38;97905.06;;;-1.38;94.58
61769;BME280;47669;48.712;9.016;2024-01-30T04:47:04;97903.31;;;-1.12;94.82
61769;BME280;47669;48.712;9.016;2024-01-30T04:49:31;97909.53;;;-0.76;92.87
61769;BME280;47669;48.712;9.016;2024-01-30T04:51:56;97902.25;;;-0.84;92.13
61769;BME280;47669;48.712;9.016;2024-01-30T04:54:21;97898.81;;;-0.71;91.84
61769;BME280;47669;48.712;9.016;2024-01-30T04:56:47;97902.16;;;-0.95;92.93
61769;BME280;47669;48.712;9.016;2024-01-30T04:59:12;97906.94;;;-1.14;93.82
61769;BME280;47669;48.712;9.016;2024-01-30T05:01:37;97908.19;;;-1.07;93.33
61769;BME280;47669;48.712;9.016;2024-01-30T05:04:03;97907.88;;;-1.15;93.28
61769;BME280;47669;48.712;9.016;2024-01-30T05:06:28;97907.34;;;-0.95;93.21
61769;BME280;47669;48.712;9.016;2024-01-30T05:08:54;97914.41;;;-0.97;92.66
61769;BME280;47669;48.712;9.016;2024-01-30T05:11:19;97912.94;;;-1.39;94.14
61769;BME280;47669;48.712;9.016;2024-01-30T05:13:44;97922.69;;;-1.43;94.15
61769;BME280;47669;48.712;9.016;2024-01-30T05:16:10;97921.88;;;-1.31;94.12
61769;BME280;47669;48.712;9.016;2024-01-30T05:18:35;97914.63;;;-1.13;93.46
61769;BME280;47669;48.712;9.016;2024-01-30T05:21:05;97921.25;;;-1.34;95.00
61769;BME280;47669;48.712;9.016;2024-01-30T05:23:30;97916.69;;;-1.31;94.16
61769;BME280;47669;48.712;9.016;2024-01-30T05:25:55;97914.00;;;-1.04;93.63
61769;BME280;47669;48.712;9.016;2024-01-30T05:28:21;97918.03;;;-1.25;94.20
61769;BME280;47669;48.712;9.016;2024-01-30T05:30:46;97910.34;;;-1.39;95.09
61769;BME280;47669;48.712;9.016;2024-01-30T05:33:11;97905.69;;;-1.34;94.55
61769;BME280;47669;48.712;9.016;2024-01-30T05:35:38;97908.59;;;-1.26;94.53
61769;BME280;47669;48.712;9.016;2024-01-30T05:38:03;97914.41;;;-1.10;94.85
61769;BME280;47669;48.712;9.016;2024-01-30T05:40:30;97912.34;;;-1.17;93.68
61769;BME280;47669;48.712;9.016;2024-01-30T05:42:55;97923.44;;;-1.28;93.38
61769;BME280;47669;48.712;9.016;2024-01-30T05:45:22;97924.47;;;-1.31;94.07
61769;BME280;47669;48.712;9.016;2024-01-30T05:47:49;97918.03;;;-1.12;94.22
61769;BME280;47669;48.712;9.016;2024-01-30T05:50:15;97915.25;;;-1.09;92.69
61769;BME280;47669;48.712;9.016;2024-01-30T05:52:42;97917.13;;;-1.11;92.82
61769;BME280;47669;48.712;9.016;2024-01-30T05:55:08;97933.06;;;-1.43;93.59
61769;BME280;47669;48.712;9.016;2024-01-30T05:57:35;97930.59;;;-1.19;93.76
61769;BME280;47669;48.712;9.016;2024-01-30T06:00:03;97940.63;;;-1.27;93.61
61769;BME280;47669;48.712;9.016;2024-01-30T06:02:30;97930.38;;;-1.29;93.23
61769;BME280;47669;48.712;9.016;2024-01-30T06:04:58;97937.91;;;-1.51;93.71
61769;BME280;47669;48.712;9.016;2024-01-30T06:07:27;97931.94;;;-1.13;93.28
61769;BME280;47669;48.712;9.016;2024-01-30T06:09:53;97928.53;;;-0.38;93.01
61769;BME280;47669;48.712;9.016;2024-01-30T06:12:19;97926.00;;;-0.77;92.32
61769;BME280;47669;48.712;9.016;2024-01-30T06:14:44;97925.22;;;-1.16;93.04
61769;BME280;47669;48.712;9.016;2024-01-30T06:17:09;97934.13;;;-1.33;93.72
61769;BME280;47669;48.712;9.016;2024-01-30T06:19:37;97930.69;;;-1.33;93.50
61769;BME280;47669;48.712;9.016;2024-01-30T06:22:02;97934.44;;;-1.25;93.43
61769;BME280;47669;48.712;9.016;2024-01-30T06:24:27;97934.84;;;-1.44;93.32
61769;BME280;47669;48.712;9.016;2024-01-30T06:26:53;97941.66;;;-1.42;93.84
61769;BME280;47669;48.712;9.016;2024-01-30T06:29:18;97944.25;;;-1.42;93.17
61769;BME280;47669;48.712;9.016;2024-01-30T06:31:43;97942.91;;;-1.48;93.70
61769;BME280;47669;48.712;9.016;2024-01-30T06:34:09;97935.44;;;-1.27;93.29
61769;BME280;47669;48.712;9.016;2024-01-30T06:36:35;97927.16;;;-1.19;92.61
61769;BME280;47669;48.712;9.016;2024-01-30T06:39:02;97935.72;;;-1.57;93.72
61769;BME280;47669;48.712;9.016;2024-01-30T06:41:27;97935.75;;;-1.45;92.88
61769;BME280;47669;48.712;9.016;2024-01-30T06:43:53;97933.47;;;-1.49;93.42
61769;BME280;47669;48.712;9.016;2024-01-30T06:46:18;97943.75;;;-1.48;93.55
61769;BME280;47669;48.712;9.016;2024-01-30T06:48:43;97938.50;;;-1.20;93.34
61769;BME280;47669;48.712;9.016;2024-01-30T06:51:10;97947.16;;;-1.47;93.97
61769;BME280;47669;48.712;9.016;2024-01-30T06:53:35;97940.34;;;-1.35;93.56
61769;BME280;47669;48.712;9.016;2024-01-30T06:56:01;97940.44;;;-1.37;94.11
61769;BME280;47669;48.712;9.016;2024-01-30T06:58:26;97939.00;;;-1.28;94.07
61769;BME280;47669;48.712;9.016;2024-01-30T07:00:51;97934.22;;;-1.21;93.47
61769;BME280;47669;48.712;9.016;2024-01-30T07:03:16;97936.09;;;-0.98;92.22
61769;BME280;47669;48.712;9.016;2024-01-30T07:05:42;97946.47;;;-0.98;92.35
61769;BME280;47669;48.712;9.016;2024-01-30T07:08:08;97936.72;;;-0.94;92.07
61769;BME280;47669;48.712;9.016;2024-01-30T07:10:33;97958.41;;;-0.95;92.83
61769;BME280;47669;48.712;9.016;2024-01-30T07:13:00;97957.16;;;-1.03;92.93
61769;BME280;47669;48.712;9.016;2024-01-30T07:15:25;97959.44;;;-1.11;92.92
61769;BME280;47669;48.712;9.016;2024-01-30T07:17:50;97954.16;;;-1.09;92.56
61769;BME280;47669;48.712;9.016;2024-01-30T07:20:16;97961.84;;;-1.08;92.99
61769;BME280;47669;48.712;9.016;2024-01-30T07:22:41;97955.41;;;-1.02;93.64
61769;BME280;47669;48.712;9.016;2024-01-30T07:25:06;97953.44;;;-0.86;92.68
61769;BME280;47669;48.712;9.016;2024-01-30T07:27:32;97950.44;;;-0.92;92.40
61769;BME280;47669;48.712;9.016;2024-01-30T07:29:57;97947.75;;;-0.91;91.87
61769;BME280;47669;48.712;9.016;2024-01-30T07:32:22;97947.59;;;-0.64;92.02
61769;BME280;47669;48.712;9.016;2024-01-30T07:34:48;97943.13;;;-0.62;92.27
61769;BME280;47669;48.712;9.016;2024-01-30T07:37:14;97949.78;;;-0.70;92.83
61769;BME280;47669;48.712;9.016;2024-01-30T07:39:41;97954.56;;;-0.64;92.61
61769;BME280;47669;48.712;9.016;2024-01-30T07:42:06;97952.91;;;-0.52;92.91
61769;BME280;47669;48.712;9.016;2024-01-30T07:44:31;97953.94;;;-0.55;92.88
61769;BME280;47669;48.712;9.016;2024-01-30T07:46:56;97946.41;;;-0.34;92.21
61769;BME280;47669;48.712;9.016;2024-01-30T07:49:22;97956.09;;;-0.36;92.46
61769;BME280;47669;48.712;9.016;2024-01-30T07:51:47;97952.31;;;-0.19;92.93
61769;BME280;47669;48.712;9.016;2024-01-30T07:54:13;97958.56;;;0.03;92.32
61769;BME280;47669;48.712;9.016;2024-01-30T07:56:38;97955.59;;;-0.04;92.28
61769;BME280;47669;48.712;9.016;2024-01-30T07:59:03;97955.25;;;0.01;92.68
61769;BME280;47669;48.712;9.016;2024-01-30T08:01:29;97958.28;;;0.18;93.12
61769;BME280;47669;48.712;9.016;2024-01-30T08:03:54;97962.00;;;0.51;91.68
61769;BME280;47669;48.712;9.016;2024-01-30T08:06:19;97954.78;;;0.55;91.33
61769;BME280;47669;48.712;9.016;2024-01-30T08:08:45;97956.66;;;0.53;92.78
61769;BME280;47669;48.712;9.016;2024-01-30T08:11:10;97960.56;;;0.94;91.91
61769;BME280;47669;48.712;9.016;2024-01-30T08:13:35;97958.38;;;1.23;89.28
61769;BME280;47669;48.712;9.016;2024-01-30T08:16:01;97952.88;;;1.04;89.83
61769;BME280;47669;48.712;9.016;2024-01-30T08:18:26;97959.50;;;0.96;90.58
61769;BME280;47669;48.712;9.016;2024-01-30T08:20:51;97951.38;;;1.12;90.23
61769;BME280;47669;48.712;9.016;2024-01-30T08:23:17;97947.59;;;1.28;90.99
61769;BME280;47669;48.712;9.016;2024-01-30T08:25:42;97952.59;;;1.42;89.66
61769;BME280;47669;48.712;9.016;2024-01-30T08:28:07;97945.81;;;1.62;88.73
61769;BME280;47669;48.712;9.016;2024-01-30T08:30:33;97953.88;;;1.59;89.10
61769;BME280;47669;48.712;9.016;2024-01-30T08:32:58;97948.06;;;1.78;89.59
61769;BME280;47669;48.712;9.016;2024-01-30T08:35:24;97949.81;;;1.89;88.73
61769;BME280;47669;48.712;9.016;2024-01-30T08:37:49;97948.50;;;1.83;88.96
61769;BME280;47669;48.712;9.016;2024-01-30T08:40:14;97954.28;;;1.98;89.32
61769;BME280;47669;48.712;9.016;2024-01-30T08:42:40;97949.91;;;1.98;88.75
61769;BME280;47669;48.712;9.016;2024-01-30T08:45:05;97950.56;;;2.23;88.38
61769;BME280;47669;48.712;9.016;2024-01-30T08:47:31;97953.50;;;2.30;87.98
61769;BME280;47669;48.712;9.016;2024-01-30T08:49:56;97946.16;;;2.23;89.32
61769;BME280;47669;48.712;9.016;2024-01-30T08:52:21;97961.00;;;2.23;90.02
61769;BME280;47669;48.712;9.016;2024-01-30T08:54:47;97955.50;;;2.37;88.77
61769;BME280;47669;48.712;9.016;2024-01-30T08:57:12;97954.50;;;2.71;88.23
61769;BME280;47669;48.712;9.016;2024-01-30T08:59:37;97951.28;;;2.99;87.23
61769;BME280;47669;48.712;9.016;2024-01-30T09:02:03;97955.72;;;3.09;86.90
61769;BME280;47669;48.712;9.016;2024-01-30T09:04:29;97944.97;;;3.02;87.23
61769;BME280;47669;48.712;9.016;2024-01-30T09:06:54;97956.56;;;3.09;87.18
61769;BME280;47669;48.712;9.016;2024-01-30T09:09:20;97955.47;;;3.42;86.87
61769;BME280;47669;48.712;9.016;2024-01-30T09:11:45;97961.47;;;3.64;85.84
61769;BME280;47669;48.712;9.016;2024-01-30T09:14:11;97963.34;;;3.83;84.99
61769;BME280;47669;48.712;9.016;2024-01-30T09:16:37;97964.78;;;4.06;85.15
61769;BME280;47669;48.712;9.016;2024-01-30T09:19:02;97960.44;;;4.36;83.61
61769;BME280;47669;48.712;9.016;2024-01-30T09:21:27;97959.19;;;4.60;83.35
61769;BME280;47669;48.712;9.016;2024-01-30T09:24:02;97963.19;;;4.64;84.22
61769;BME280;47669;48.712;9.016;2024-01-30T09:26:30;97966.78;;;4.73;82.87
61769;BME280;47669;48.712;9.016;2024-01-30T09:28:56;97969.13;;;4.66;81.09
61769;BME280;47669;48.712;9.016;2024-01-30T09:31:21;97963.19;;;4.83;82.78
61769;BME280;47669;48.712;9.016;2024-01-30T09:33:46;97965.09;;;5.01;79.24
61769;BME280;47669;48.712;9.016;2024-01-30T09:36:13;97962.84;;;5.25;78.94
61769;BME280;47669;48.712;9.016;2024-01-30T09:38:40;97955.78;;;5.36;78.47
61769;BME280;47669;48.712;9.016;2024-01-30T09:41:09;97955.84;;;5.44;72.59
61769;BME280;47669;48.712;9.016;2024-01-30T09:43:36;97956.41;;;5.47;71.88
61769;BME280;47669;48.712;9.016;2024-01-30T09:46:03;97962.34;;;5.77;69.89
61769;BME280;47669;48.712;9.016;2024-01-30T09:48:30;97964.94;;;5.87;69.43
61769;BME280;47669;48.712;9.016;2024-01-30T09:50:57;97967.34;;;5.80;68.91
61769;BME280;47669;48.712;9.016;2024-01-30T09:53:22;97968.84;;;5.83;70.29
61769;BME280;47669;48.712;9.016;2024-01-30T09:55:49;97980.38;;;5.90;69.33
61769;BME280;47669;48.712;9.016;2024-01-30T09:58:15;97972.78;;;5.97;69.01
61769;BME280;47669;48.712;9.016;2024-01-30T10:00:41;97974.66;;;6.14;71.51
61769;BME280;47669;48.712;9.016;2024-01-30T10:03:06;97976.75;;;6.28;72.80
61769;BME280;47669;48.712;9.016;2024-01-30T10:05:31;97971.75;;;6.35;74.04
61769;BME280;47669;48.712;9.016;2024-01-30T10:07:59;97979.31;;;6.38;76.54
61769;BME280;47669;48.712;9.016;2024-01-30T10:10:25;97976.47;;;6.49;70.85
61769;BME280;47669;48.712;9.016;2024-01-30T10:12:50;97975.00;;;6.65;69.12
61769;BME280;47669;48.712;9.016;2024-01-30T10:15:17;97984.06;;;6.88;70.70
61769;BME280;47669;48.712;9.016;2024-01-30T10:17:44;97975.72;;;6.93;69.82
61769;BME280;47669;48.712;9.016;2024-01-30T10:20:10;97974.69;;;6.86;70.44
61769;BME280;47669;48.712;9.016;2024-01-30T10:22:35;97978.63;;;7.08;65.19
61769;BME280;47669;48.712;9.016;2024-01-30T10:25:00;97970.84;;;7.24;64.06
61769;BME280;47669;48.712;9.016;2024-01-30T10:27:29;97973.69;;;7.31;63.51
61769;BME280;47669;48.712;9.016;2024-01-30T10:29:55;97973.56;;;7.41;63.16
61769;BME280;47669;48.712;9.016;2024-01-30T10:32:21;97965.22;;;7.45;63.51
61769;BME280;47669;48.712;9.016;2024-01-30T10:34:46;97960.78;;;7.46;62.01
61769;BME280;47669;48.712;9.016;2024-01-30T10:37:12;97963.28;;;7.55;61.37
61769;BME280;47669;48.712;9.016;2024-01-30T10:39:40;97953.19;;;7.69;62.11
61769;BME280;47669;48.712;9.016;2024-01-30T10:42:19;97957.00;;;7.83;66.00
61769;BME280;47669;48.712;9.016;2024-01-30T10:47:27;97957.09;;;8.07;61.87
61769;BME280;47669;48.712;9.016;2024-01-30T10:49:54;97951.88;;;8.24;62.75
61769;BME280;47669;48.712;9.016;2024-01-30T10:52:20;97951.56;;;8.35;61.67
61769;BME280;47669;48.712;9.016;2024-01-30T10:54:46;97947.63;;;8.39;60.94
61769;BME280;47669;48.712;9.016;2024-01-30T10:57:12;97948.66;;;8.46;60.81
61769;BME280;47669;48.712;9.016;2024-01-30T10:59:37;97951.31;;;8.71;61.77
61769;BME280;47669;48.712;9.016;2024-01-30T11:02:03;97944.75;;;8.75;61.09
61769;BME280;47669;48.712;9.016;2024-01-30T11:04:41;97946.06;;;8.79;60.15
61769;BME280;47669;48.712;9.016;2024-01-30T11:07:17;97940.28;;;8.92;64.85
61769;BME280;47669;48.712;9.016;2024-01-30T11:12:24;97943.25;;;8.97;58.93
61769;BME280;47669;48.712;9.016;2024-01-30T11:15:07;97946.06;;;8.95;58.34
61769;BME280;47669;48.712;9.016;2024-01-30T11:20:25;97949.50;;;9.12;58.65
61769;BME280;47669;48.712;9.016;2024-01-30T11:22:52;97940.22;;;9.25;61.36
61769;BME280;47669;48.712;9.016;2024-01-30T11:25:19;97942.56;;;9.28;59.33
61769;BME280;47669;48.712;9.016;2024-01-30T11:27:46;97934.13;;;9.32;58.79
61769;BME280;47669;48.712;9.016;2024-01-30T11:30:31;97939.88;;;9.44;57.16
61769;BME280;47669;48.712;9.016;2024-01-30T11:35:33;97937.03;;;9.54;56.57
61769;BME280;47669;48.712;9.016;2024-01-30T11:38:00;97931.59;;;9.55;57.11
61769;BME280;47669;48.712;9.016;2024-01-30T11:40:31;97929.78;;;9.56;56.84
61769;BME280;47669;48.712;9.016;2024-01-30T11:42:59;97935.53;;;9.68;56.30
61769;BME280;47669;48.712;9.016;2024-01-30T11:45:24;97935.63;;;9.83;57.29
61769;BME280;47669;48.712;9.016;2024-01-30T11:47:50;97932.41;;;10.04;56.08
61769;BME280;47669;48.712;9.016;2024-01-30T11:50:15;97925.03;;;9.91;56.76
61769;BME280;47669;48.712;9.016;2024-01-30T11:52:41;97931.03;;;10.16;56.62
61769;BME280;47669;48.712;9.016;2024-01-30T11:55:08;97926.50;;;9.93;56.54
61769;BME280;47669;48.712;9.016;2024-01-30T11:57:34;97919.72;;;9.99;56.30
61769;BME280;47669;48.712;9.016;2024-01-30T12:00:05;97917.56;;;9.94;55.28
61769;BME280;47669;48.712;9.016;2024-01-30T12:02:38;97908.91;;;10.09;56.01
61769;BME280;47669;48.712;9.016;2024-01-30T12:05:07;97911.03;;;10.13;55.58
61769;BME280;47669;48.712;9.016;2024-01-30T12:07:33;97902.25;;;10.21;57.60
61769;BME280;47669;48.712;9.016;2024-01-30T12:09:59;97904.34;;;10.26;55.88
61769;BME280;47669;48.712;9.016;2024-01-30T12:12:28;97901.53;;;10.35;56.34
61769;BME280;47669;48.712;9.016;2024-01-30T12:14:55;97904.34;;;10.26;55.76
61769;BME280;47669;48.712;9.016;2024-01-30T12:17:39;97895.59;;;10.33;55.99
61769;BME280;47669;48.712;9.016;2024-01-30T12:20:12;97889.09;;;10.44;55.26
61769;BME280;47669;48.712;9.016;2024-01-30T12:22:42;97890.00;;;10.51;53.83
61769;BME280;47669;48.712;9.016;2024-01-30T12:25:12;97893.72;;;10.65;54.26
61769;BME280;47669;48.712;9.016;2024-01-30T12:27:39;97880.47;;;10.88;53.00
61769;BME280;47669;48.712;9.016;2024-01-30T12:30:08;97884.88;;;11.26;54.67
61769;BME280;47669;48.712;9.016;2024-01-30T12:32:42;97876.41;;;11.45;52.23
61769;BME280;47669;48.712;9.016;2024-01-30T12:35:14;97875.47;;;11.38;52.85
61769;BME280;47669;48.712;9.016;2024-01-30T12:37:40;97875.84;;;11.35;52.61
61769;BME280;47669;48.712;9.016;2024-01-30T12:40:07;97877.84;;;11.33;52.52
61769;BME280;47669;48.712;9.016;2024-01-30T12:42:33;97872.34;;;11.19;51.96
61769;BME280;47669;48.712;9.016;2024-01-30T12:44:59;97879.56;;;11.26;52.22
61769;BME280;47669;48.712;9.016;2024-01-30T12:47:24;97879.94;;;11.08;52.05
61769;BME280;47669;48.712;9.016;2024-01-30T12:49:50;97877.91;;;11.69;51.83
61769;BME280;47669;48.712;9.016;2024-01-30T12:52:20;97877.44;;;11.80;50.40
61769;BME280;47669;48.712;9.016;2024-01-30T12:54:46;97883.38;;;11.82;49.94
61769;BME280;47669;48.712;9.016;2024-01-30T12:57:12;97874.22;;;12.00;50.05
61769;BME280;47669;48.712;9.016;2024-01-30T12:59:37;97873.94;;;12.74;49.33
61769;BME280;47669;48.712;9.016;2024-01-30T13:02:03;97874.19;;;12.79;48.94
61769;BME280;47669;48.712;9.016;2024-01-30T13:04:28;97872.06;;;12.47;47.42
61769;BME280;47669;48.712;9.016;2024-01-30T13:06:54;97875.22;;;12.35;47.89
61769;BME280;47669;48.712;9.016;2024-01-30T13:09:19;97884.53;;;12.10;49.14